sensor_id;sensor_type;location;lat;lon;timestamp;pressure;altitude;pressure_sealevel;temperature;humidity
60101;BME280;45978;53.646;55.930;2022-08-11T00:00:42;99836.78;;;20.50;70.34
60101;BME280;45978;53.646;55.930;2022-08-11T00:01:49;99834.94;;;20.51;70.34
60101;BME280;45978;53.646;55.930;2022-08-11T00:02:51;99832.28;;;20.51;70.39
60101;BME280;45978;53.646;55.930;2022-08-11T00:03:56;99835.19;;;20.61;70.18
60101;BME280;45978;53.646;55.930;2022-08-11T00:05:07;99837.03;;;20.60;69.87
60101;BME280;45978;53.646;55.930;2022-08-11T00:06:09;99837.03;;;20.60;69.58
60101;BME280;45978;53.646;55.930;2022-08-11T00:07:11;99835.94;;;20.63;69.88
60101;BME280;45978;53.646;55.930;2022-08-11T00:08:24;99835.94;;;20.63;69.55
60101;BME280;45978;53.646;55.930;2022-08-11T00:09:31;99842.97;;;20.64;69.61
60101;BME280;45978;53.646;55.930;2022-08-11T00:10:33;99837.63;;;20.64;69.68
60101;BME280;45978;53.646;55.930;2022-08-11T00:11:56;99838.41;;;20.66;69.73
60101;BME280;45978;53.646;55.930;2022-08-11T00:13:01;99843.19;;;20.61;70.14
60101;BME280;45978;53.646;55.930;2022-08-11T00:14:13;99835.50;;;20.56;71.37
60101;BME280;45978;53.646;55.930;2022-08-11T00:15:18;99841.97;;;20.52;71.65
60101;BME280;45978;53.646;55.930;2022-08-11T00:16:22;99841.38;;;20.48;72.02
60101;BME280;45978;53.646;55.930;2022-08-11T00:17:30;99842.75;;;20.41;72.48
60101;BME280;45978;53.646;55.930;2022-08-11T00:18:53;99847.53;;;20.36;72.82
60101;BME280;45978;53.646;55.930;2022-08-11T00:20:04;99841.03;;;20.27;72.86
60101;BME280;45978;53.646;55.930;2022-08-11T00:21:06;99849.69;;;20.31;72.88
60101;BME280;45978;53.646;55.930;2022-08-11T00:22:08;99849.03;;;20.27;72.93
60101;BME280;45978;53.646;55.930;2022-08-11T00:23:15;99840.38;;;20.24;73.00
60101;BME280;45978;53.646;55.930;2022-08-11T00:24:18;99849.13;;;20.26;73.12
60101;BME280;45978;53.646;55.930;2022-08-11T00:25:21;99842.31;;;20.22;73.18
60101;BME280;45978;53.646;55.930;2022-08-11T00:26:24;99849.75;;;20.16;73.48
60101;BME280;45978;53.646;55.930;2022-08-11T00:27:34;99846.34;;;20.14;73.38
60101;BME280;45978;53.646;55.930;2022-08-11T00:28:36;99856.38;;;20.11;73.39
60101;BME280;45978;53.646;55.930;2022-08-11T00:29:38;99849.56;;;20.07;73.69
60101;BME280;45978;53.646;55.930;2022-08-11T00:30:39;99859.56;;;20.03;73.53
60101;BME280;45978;53.646;55.930;2022-08-11T00:31:52;99847.28;;;20.01;73.56
60101;BME280;45978;53.646;55.930;2022-08-11T00:32:56;99852.72;;;19.99;73.82
60101;BME280;45978;53.646;55.930;2022-08-11T00:34:00;99845.91;;;19.95;73.62
60101;BME280;45978;53.646;55.930;2022-08-11T00:35:04;99859.66;;;20.02;73.79
60101;BME280;45978;53.646;55.930;2022-08-11T00:36:09;99859.97;;;19.97;73.72
60101;BME280;45978;53.646;55.930;2022-08-11T00:37:17;99864.91;;;20.03;73.86
60101;BME280;45978;53.646;55.930;2022-08-11T00:38:24;99859.00;;;19.98;73.77
60101;BME280;45978;53.646;55.930;2022-08-11T00:39:30;99863.16;;;20.02;73.83
60101;BME280;45978;53.646;55.930;2022-08-11T00:40:38;99871.16;;;20.02;73.87
60101;BME280;45978;53.646;55.930;2022-08-11T00:45:50;99861.13;;;19.93;74.10
60101;BME280;45978;53.646;55.930;2022-08-11T00:48:30;99855.91;;;19.91;74.08
60101;BME280;45978;53.646;55.930;2022-08-11T00:50:03;99856.94;;;19.89;74.32
60101;BME280;45978;53.646;55.930;2022-08-11T00:54:28;99855.28;;;20.01;74.09
60101;BME280;45978;53.646;55.930;2022-08-11T01:00:10;99851.56;;;20.03;74.05
60101;BME280;45978;53.646;55.930;2022-08-11T01:06:05;99848.81;;;20.17;73.79
60101;BME280;45978;53.646;55.930;2022-08-11T01:07:41;99857.00;;;20.14;73.66
60101;BME280;45978;53.646;55.930;2022-08-11T01:10:43;99860.84;;;20.10;73.81
60101;BME280;45978;53.646;55.930;2022-08-11T01:16:46;99863.88;;;20.18;73.34
60101;BME280;45978;53.646;55.930;2022-08-11T01:19:28;99860.63;;;20.13;73.17
60101;BME280;45978;53.646;55.930;2022-08-11T01:20:58;99865.97;;;20.13;73.07
60101;BME280;45978;53.646;55.930;2022-08-11T01:25:43;99868.41;;;20.04;73.60
60101;BME280;45978;53.646;55.930;2022-08-11T01:36:05;99855.53;;;20.23;72.74
60101;BME280;45978;53.646;55.930;2022-08-11T01:39:30;99871.34;;;21.03;70.50
60101;BME280;45978;53.646;55.930;2022-08-11T01:49:11;99872.91;;;22.50;64.73
60101;BME280;45978;53.646;55.930;2022-08-11T01:54:39;99856.72;;;23.31;61.63
60101;BME280;45978;53.646;55.930;2022-08-11T01:56:05;99874.22;;;23.58;60.55
60101;BME280;45978;53.646;55.930;2022-08-11T01:57:30;99880.53;;;23.68;60.09
60101;BME280;45978;53.646;55.930;2022-08-11T01:58:47;99879.78;;;23.77;60.35
60101;BME280;45978;53.646;55.930;2022-08-11T02:00:02;99877.28;;;23.97;59.62
60101;BME280;45978;53.646;55.930;2022-08-11T02:02:36;99876.31;;;24.61;57.32
60101;BME280;45978;53.646;55.930;2022-08-11T02:04:14;99872.97;;;24.99;56.40
60101;BME280;45978;53.646;55.930;2022-08-11T02:06:43;99872.09;;;25.29;55.98
60101;BME280;45978;53.646;55.930;2022-08-11T02:08:23;99870.16;;;25.51;54.00
60101;BME280;45978;53.646;55.930;2022-08-11T02:09:55;99868.34;;;25.81;53.48
60101;BME280;45978;53.646;55.930;2022-08-11T02:11:24;99864.97;;;26.18;52.23
60101;BME280;45978;53.646;55.930;2022-08-11T02:12:40;99867.31;;;26.50;51.46
60101;BME280;45978;53.646;55.930;2022-08-11T02:15:23;99867.50;;;26.96;49.51
60101;BME280;45978;53.646;55.930;2022-08-11T02:18:09;99864.88;;;27.59;48.19
60101;BME280;45978;53.646;55.930;2022-08-11T02:21:03;99863.84;;;27.88;47.08
60101;BME280;45978;53.646;55.930;2022-08-11T02:22:54;99866.97;;;28.19;45.82
60101;BME280;45978;53.646;55.930;2022-08-11T02:24:33;99873.56;;;28.43;45.54
60101;BME280;45978;53.646;55.930;2022-08-11T02:27:07;99865.22;;;28.80;44.49
60101;BME280;45978;53.646;55.930;2022-08-11T02:29:33;99869.72;;;29.06;43.88
60101;BME280;45978;53.646;55.930;2022-08-11T02:32:30;99877.44;;;28.93;43.99
60101;BME280;45978;53.646;55.930;2022-08-11T02:33:59;99877.28;;;28.68;44.59
60101;BME280;45978;53.646;55.930;2022-08-11T02:35:19;99882.97;;;29.17;44.29
60101;BME280;45978;53.646;55.930;2022-08-11T02:36:35;99873.78;;;29.10;43.39
60101;BME280;45978;53.646;55.930;2022-08-11T02:39:02;99878.91;;;29.21;43.78
60101;BME280;45978;53.646;55.930;2022-08-11T02:41:48;99879.72;;;29.56;42.76
60101;BME280;45978;53.646;55.930;2022-08-11T02:44:37;99878.34;;;29.52;43.46
60101;BME280;45978;53.646;55.930;2022-08-11T02:46:00;99882.31;;;28.89;43.45
60101;BME280;45978;53.646;55.930;2022-08-11T02:48:02;99874.69;;;28.85;43.79
60101;BME280;45978;53.646;55.930;2022-08-11T02:48:57;99882.00;;;29.27;43.63
60101;BME280;45978;53.646;55.930;2022-08-11T02:50:25;99873.34;;;29.90;42.12
60101;BME280;45978;53.646;55.930;2022-08-11T02:51:56;99872.00;;;30.44;40.57
60101;BME280;45978;53.646;55.930;2022-08-11T02:56:13;99880.38;;;31.37;39.06
60101;BME280;45978;53.646;55.930;2022-08-11T02:57:53;99886.28;;;31.41;38.35
60101;BME280;45978;53.646;55.930;2022-08-11T03:00:45;99887.50;;;31.93;37.12
60101;BME280;45978;53.646;55.930;2022-08-11T03:01:52;99888.34;;;32.25;36.92
60101;BME280;45978;53.646;55.930;2022-08-11T03:03:29;99879.88;;;32.34;36.08
60101;BME280;45978;53.646;55.930;2022-08-11T03:07:05;99886.16;;;33.03;35.39
60101;BME280;45978;53.646;55.930;2022-08-11T03:08:58;99885.63;;;33.07;34.96
60101;BME280;45978;53.646;55.930;2022-08-11T03:09:45;99884.50;;;33.17;34.44
60101;BME280;45978;53.646;55.930;2022-08-11T03:12:24;99883.84;;;33.29;34.72
60101;BME280;45978;53.646;55.930;2022-08-11T03:14:11;99881.09;;;33.29;33.99
60101;BME280;45978;53.646;55.930;2022-08-11T03:15:51;99885.84;;;33.42;34.17
60101;BME280;45978;53.646;55.930;2022-08-11T03:17:33;99893.13;;;33.35;33.65
60101;BME280;45978;53.646;55.930;2022-08-11T03:18:47;99892.41;;;33.48;34.45
60101;BME280;45978;53.646;55.930;2022-08-11T03:21:22;99898.69;;;33.63;33.31
60101;BME280;45978;53.646;55.930;2022-08-11T03:22:33;99897.75;;;33.71;33.17
60101;BME280;45978;53.646;55.930;2022-08-11T03:23:50;99902.41;;;33.99;32.88
60101;BME280;45978;53.646;55.930;2022-08-11T03:25:31;99898.53;;;34.29;33.03
60101;BME280;45978;53.646;55.930;2022-08-11T03:28:10;99897.88;;;34.77;31.96
60101;BME280;45978;53.646;55.930;2022-08-11T03:30:42;99897.41;;;35.08;31.53
60101;BME280;45978;53.646;55.930;2022-08-11T03:32:01;99902.53;;;35.18;31.37
60101;BME280;45978;53.646;55.930;2022-08-11T03:34:40;99894.03;;;35.48;30.78
60101;BME280;45978;53.646;55.930;2022-08-11T03:36:11;99899.53;;;35.61;30.26
60101;BME280;45978;53.646;55.930;2022-08-11T03:37:35;99913.09;;;35.96;30.27
60101;BME280;45978;53.646;55.930;2022-08-11T03:40:12;99909.34;;;36.71;29.86
60101;BME280;45978;53.646;55.930;2022-08-11T03:41:25;99897.50;;;37.03;29.01
60101;BME280;45978;53.646;55.930;2022-08-11T03:42:55;99907.31;;;37.31;28.82
60101;BME280;45978;53.646;55.930;2022-08-11T03:44:09;99908.53;;;37.42;28.58
60101;BME280;45978;53.646;55.930;2022-08-11T03:45:32;99902.00;;;37.43;27.99
60101;BME280;45978;53.646;55.930;2022-08-11T03:51:17;99920.09;;;37.44;27.50
60101;BME280;45978;53.646;55.930;2022-08-11T03:54:13;99920.47;;;36.89;28.33
60101;BME280;45978;53.646;55.930;2022-08-11T03:58:41;99927.09;;;37.40;27.85
60101;BME280;45978;53.646;55.930;2022-08-11T04:00:10;99922.97;;;37.69;27.54
60101;BME280;45978;53.646;55.930;2022-08-11T04:01:44;99925.38;;;37.91;26.95
60101;BME280;45978;53.646;55.930;2022-08-11T04:21:56;99941.84;;;39.35;25.84
60101;BME280;45978;53.646;55.930;2022-08-11T04:31:58;99942.94;;;39.83;25.54
60101;BME280;45978;53.646;55.930;2022-08-11T04:33:22;99940.16;;;39.15;25.80
60101;BME280;45978;53.646;55.930;2022-08-11T04:35:07;99941.75;;;37.59;28.04
60101;BME280;45978;53.646;55.930;2022-08-11T04:39:59;99940.00;;;38.41;27.09
60101;BME280;45978;53.646;55.930;2022-08-11T04:44:50;99936.38;;;39.53;25.81
60101;BME280;45978;53.646;55.930;2022-08-11T04:48:13;99921.84;;;39.95;25.42
60101;BME280;45978;53.646;55.930;2022-08-11T04:53:11;99927.53;;;40.35;24.81
60101;BME280;45978;53.646;55.930;2022-08-11T04:56:31;99919.97;;;39.58;25.19
60101;BME280;45978;53.646;55.930;2022-08-11T04:58:23;99932.16;;;39.81;25.46
60101;BME280;45978;53.646;55.930;2022-08-11T05:00:12;99925.59;;;40.12;24.38
60101;BME280;45978;53.646;55.930;2022-08-11T05:04:38;99932.28;;;40.16;24.19
60101;BME280;45978;53.646;55.930;2022-08-11T05:13:47;99932.78;;;39.53;25.25
60101;BME280;45978;53.646;55.930;2022-08-11T05:15:15;99925.44;;;39.47;25.21
60101;BME280;45978;53.646;55.930;2022-08-11T05:16:49;99928.78;;;39.30;25.27
60101;BME280;45978;53.646;55.930;2022-08-11T05:18:17;99927.41;;;39.58;25.24
60101;BME280;45978;53.646;55.930;2022-08-11T05:19:44;99932.69;;;39.90;24.64
60101;BME280;45978;53.646;55.930;2022-08-11T05:21:12;99925.75;;;39.87;24.38
60101;BME280;45978;53.646;55.930;2022-08-11T05:22:33;99921.53;;;39.85;24.81
60101;BME280;45978;53.646;55.930;2022-08-11T05:24:05;99930.34;;;40.05;24.47
60101;BME280;45978;53.646;55.930;2022-08-11T05:25:29;99927.38;;;40.18;24.08
60101;BME280;45978;53.646;55.930;2022-08-11T05:26:50;99922.06;;;40.47;24.18
60101;BME280;45978;53.646;55.930;2022-08-11T05:28:19;99928.06;;;40.68;23.69
60101;BME280;45978;53.646;55.930;2022-08-11T05:31:18;99936.16;;;40.39;24.26
60101;BME280;45978;53.646;55.930;2022-08-11T05:32:42;99929.38;;;40.42;24.33
60101;BME280;45978;53.646;55.930;2022-08-11T05:34:26;99930.63;;;40.27;23.93
60101;BME280;45978;53.646;55.930;2022-08-11T05:35:49;99927.44;;;40.42;23.93
60101;BME280;45978;53.646;55.930;2022-08-11T05:36:59;99928.28;;;40.43;23.50
60101;BME280;45978;53.646;55.930;2022-08-11T05:38:10;99923.69;;;40.25;24.29
60101;BME280;45978;53.646;55.930;2022-08-11T05:39:44;99922.84;;;40.12;23.79
60101;BME280;45978;53.646;55.930;2022-08-11T05:41:05;99926.66;;;40.23;24.04
60101;BME280;45978;53.646;55.930;2022-08-11T05:42:27;99932.09;;;40.30;24.28
60101;BME280;45978;53.646;55.930;2022-08-11T05:43:49;99923.97;;;40.47;24.09
60101;BME280;45978;53.646;55.930;2022-08-11T05:45:12;99927.81;;;40.57;23.99
60101;BME280;45978;53.646;55.930;2022-08-11T05:46:44;99916.56;;;39.63;24.59
60101;BME280;45978;53.646;55.930;2022-08-11T05:48:05;99926.34;;;39.40;25.10
60101;BME280;45978;53.646;55.930;2022-08-11T05:49:31;99928.03;;;39.23;25.24
60101;BME280;45978;53.646;55.930;2022-08-11T05:50:56;99930.47;;;39.13;25.43
60101;BME280;45978;53.646;55.930;2022-08-11T05:52:28;99933.72;;;38.34;26.18
60101;BME280;45978;53.646;55.930;2022-08-11T05:53:55;99927.50;;;38.20;26.72
60101;BME280;45978;53.646;55.930;2022-08-11T05:55:16;99923.31;;;38.43;26.05
60101;BME280;45978;53.646;55.930;2022-08-11T05:56:55;99923.75;;;38.90;25.74
60101;BME280;45978;53.646;55.930;2022-08-11T05:58:05;99918.50;;;39.07;25.29
60101;BME280;45978;53.646;55.930;2022-08-11T05:59:13;99920.84;;;39.04;25.28
60101;BME280;45978;53.646;55.930;2022-08-11T06:00:20;99921.63;;;39.29;25.49
60101;BME280;45978;53.646;55.930;2022-08-11T06:01:29;99922.91;;;39.27;25.04
60101;BME280;45978;53.646;55.930;2022-08-11T06:02:31;99915.50;;;39.27;24.96
60101;BME280;45978;53.646;55.930;2022-08-11T06:03:34;99918.88;;;39.48;25.05
60101;BME280;45978;53.646;55.930;2022-08-11T06:04:59;99920.78;;;39.47;24.82
60101;BME280;45978;53.646;55.930;2022-08-11T06:06:07;99915.91;;;39.49;24.81
60101;BME280;45978;53.646;55.930;2022-08-11T06:07:10;99911.06;;;39.63;24.83
60101;BME280;45978;53.646;55.930;2022-08-11T06:08:12;99918.50;;;39.74;24.49
60101;BME280;45978;53.646;55.930;2022-08-11T06:09:14;99909.94;;;39.83;24.73
60101;BME280;45978;53.646;55.930;2022-08-11T06:10:26;99921.34;;;39.98;24.55
60101;BME280;45978;53.646;55.930;2022-08-11T06:11:30;99920.69;;;39.84;24.22
60101;BME280;45978;53.646;55.930;2022-08-11T06:12:36;99918.50;;;39.74;24.24
60101;BME280;45978;53.646;55.930;2022-08-11T06:13:46;99931.19;;;39.75;24.53
60101;BME280;45978;53.646;55.930;2022-08-11T06:15:02;99927.44;;;39.70;24.49
60101;BME280;45978;53.646;55.930;2022-08-11T06:16:04;99927.44;;;39.70;24.70
60101;BME280;45978;53.646;55.930;2022-08-11T06:17:10;99928.50;;;39.87;24.83
60101;BME280;45978;53.646;55.930;2022-08-11T06:18:14;99925.94;;;39.86;24.54
60101;BME280;45978;53.646;55.930;2022-08-11T06:19:19;99921.28;;;39.86;24.82
60101;BME280;45978;53.646;55.930;2022-08-11T06:20:24;99925.91;;;39.74;24.51
60101;BME280;45978;53.646;55.930;2022-08-11T06:21:26;99923.16;;;39.74;24.27
60101;BME280;45978;53.646;55.930;2022-08-11T06:22:28;99930.97;;;39.77;24.60
60101;BME280;45978;53.646;55.930;2022-08-11T06:23:32;99929.25;;;39.76;24.54
60101;BME280;45978;53.646;55.930;2022-08-11T06:24:35;99921.72;;;39.71;24.64
60101;BME280;45978;53.646;55.930;2022-08-11T06:25:37;99928.00;;;39.60;24.61
60101;BME280;45978;53.646;55.930;2022-08-11T06:26:50;99918.09;;;39.59;24.90
60101;BME280;45978;53.646;55.930;2022-08-11T06:27:57;99923.06;;;39.50;24.93
60101;BME280;45978;53.646;55.930;2022-08-11T06:29:04;99924.28;;;39.36;25.05
60101;BME280;45978;53.646;55.930;2022-08-11T06:30:09;99917.50;;;39.20;25.52
60101;BME280;45978;53.646;55.930;2022-08-11T06:31:21;99915.81;;;39.19;25.15
60101;BME280;45978;53.646;55.930;2022-08-11T06:32:31;99909.56;;;39.30;24.86
60101;BME280;45978;53.646;55.930;2022-08-11T06:36:34;99922.47;;;39.78;24.85
60101;BME280;45978;53.646;55.930;2022-08-11T06:42:45;99913.22;;;39.24;25.44
60101;BME280;45978;53.646;55.930;2022-08-11T06:46:33;99912.09;;;39.80;25.26
60101;BME280;45978;53.646;55.930;2022-08-11T06:47:45;99916.84;;;39.73;24.81
60101;BME280;45978;53.646;55.930;2022-08-11T06:48:48;99914.28;;;39.90;25.02
60101;BME280;45978;53.646;55.930;2022-08-11T06:49:49;99918.88;;;40.08;24.74
60101;BME280;45978;53.646;55.930;2022-08-11T06:51:10;99904.41;;;40.13;24.75
60101;BME280;45978;53.646;55.930;2022-08-11T06:52:12;99905.97;;;40.21;24.44
60101;BME280;45978;53.646;55.930;2022-08-11T06:53:18;99919.00;;;40.25;24.17
60101;BME280;45978;53.646;55.930;2022-08-11T06:54:36;99914.97;;;40.28;24.79
60101;BME280;45978;53.646;55.930;2022-08-11T06:55:44;99908.88;;;40.26;24.71
60101;BME280;45978;53.646;55.930;2022-08-11T06:57:05;99913.09;;;39.98;24.44
60101;BME280;45978;53.646;55.930;2022-08-11T06:58:34;99909.03;;;39.70;24.68
60101;BME280;45978;53.646;55.930;2022-08-11T06:59:57;99905.75;;;39.13;25.09
60101;BME280;45978;53.646;55.930;2022-08-11T07:03:07;99913.09;;;38.50;26.26
60101;BME280;45978;53.646;55.930;2022-08-11T07:04:13;99917.91;;;38.80;25.83
60101;BME280;45978;53.646;55.930;2022-08-11T07:05:36;99920.50;;;39.00;25.77
60101;BME280;45978;53.646;55.930;2022-08-11T07:09:23;99919.34;;;39.08;25.87
60101;BME280;45978;53.646;55.930;2022-08-11T07:11:10;99923.25;;;38.93;25.84
60101;BME280;45978;53.646;55.930;2022-08-11T07:12:44;99920.06;;;38.96;26.17
60101;BME280;45978;53.646;55.930;2022-08-11T07:14:06;99916.06;;;38.99;25.57
60101;BME280;45978;53.646;55.930;2022-08-11T07:15:32;99907.13;;;39.04;25.49
60101;BME280;45978;53.646;55.930;2022-08-11T07:16:46;99906.03;;;39.23;25.35
60101;BME280;45978;53.646;55.930;2022-08-11T07:17:52;99912.75;;;39.27;25.83
60101;BME280;45978;53.646;55.930;2022-08-11T07:19:23;99902.66;;;38.15;26.73
60101;BME280;45978;53.646;55.930;2022-08-11T07:20:45;99899.03;;;38.21;26.89
60101;BME280;45978;53.646;55.930;2022-08-11T07:22:10;99903.63;;;38.53;26.57
60101;BME280;45978;53.646;55.930;2022-08-11T07:23:43;99906.31;;;38.78;26.38
60101;BME280;45978;53.646;55.930;2022-08-11T07:26:06;99890.53;;;38.92;25.95
60101;BME280;45978;53.646;55.930;2022-08-11T07:27:31;99904.03;;;38.93;26.28
60101;BME280;45978;53.646;55.930;2022-08-11T07:28:55;99905.09;;;39.17;26.09
60101;BME280;45978;53.646;55.930;2022-08-11T07:30:00;99907.88;;;39.11;25.79
60101;BME280;45978;53.646;55.930;2022-08-11T07:31:06;99904.56;;;38.65;26.23
60101;BME280;45978;53.646;55.930;2022-08-11T07:32:23;99903.69;;;38.21;26.46
60101;BME280;45978;53.646;55.930;2022-08-11T07:33:51;99904.00;;;38.56;26.82
60101;BME280;45978;53.646;55.930;2022-08-11T07:35:11;99890.78;;;38.90;26.81
60101;BME280;45978;53.646;55.930;2022-08-11T07:36:14;99906.47;;;39.38;26.43
60101;BME280;45978;53.646;55.930;2022-08-11T07:37:17;99867.88;;;39.33;25.93
60101;BME280;45978;53.646;55.930;2022-08-11T07:38:40;99887.97;;;39.64;25.24
60101;BME280;45978;53.646;55.930;2022-08-11T07:39:47;99876.31;;;39.80;25.26
60101;BME280;45978;53.646;55.930;2022-08-11T07:42:35;99898.28;;;39.99;24.86
60101;BME280;45978;53.646;55.930;2022-08-11T07:43:42;99895.88;;;39.91;24.58
60101;BME280;45978;53.646;55.930;2022-08-11T07:44:46;99875.16;;;39.58;25.14
60101;BME280;45978;53.646;55.930;2022-08-11T07:46:27;99882.81;;;39.56;25.03
60101;BME280;45978;53.646;55.930;2022-08-11T07:47:53;99846.00;;;39.38;25.56
60101;BME280;45978;53.646;55.930;2022-08-11T07:49:16;99883.06;;;39.36;25.43
60101;BME280;45978;53.646;55.930;2022-08-11T07:50:40;99889.69;;;39.47;25.33
60101;BME280;45978;53.646;55.930;2022-08-11T07:52:02;99884.47;;;39.45;25.54
60101;BME280;45978;53.646;55.930;2022-08-11T07:53:23;99883.88;;;39.36;25.44
60101;BME280;45978;53.646;55.930;2022-08-11T07:54:25;99876.47;;;39.37;25.60
60101;BME280;45978;53.646;55.930;2022-08-11T07:55:29;99879.72;;;38.97;25.99
60101;BME280;45978;53.646;55.930;2022-08-11T07:56:39;99882.94;;;37.93;26.84
60101;BME280;45978;53.646;55.930;2022-08-11T07:57:50;99891.53;;;37.72;27.75
60101;BME280;45978;53.646;55.930;2022-08-11T07:59:40;99880.44;;;37.53;27.71
60101;BME280;45978;53.646;55.930;2022-08-11T08:01:00;99869.22;;;37.68;27.69
60101;BME280;45978;53.646;55.930;2022-08-11T08:02:21;99880.38;;;37.98;27.25
60101;BME280;45978;53.646;55.930;2022-08-11T08:03:42;99868.00;;;38.21;27.59
60101;BME280;45978;53.646;55.930;2022-08-11T08:05:05;99870.69;;;38.28;27.33
60101;BME280;45978;53.646;55.930;2022-08-11T08:06:31;99840.03;;;38.31;26.87
60101;BME280;45978;53.646;55.930;2022-08-11T08:07:55;99844.38;;;38.20;26.89
60101;BME280;45978;53.646;55.930;2022-08-11T08:09:18;99835.31;;;37.62;27.64
60101;BME280;45978;53.646;55.930;2022-08-11T08:10:42;99865.91;;;36.94;28.63
60101;BME280;45978;53.646;55.930;2022-08-11T08:12:04;99851.69;;;36.52;29.56
60101;BME280;45978;53.646;55.930;2022-08-11T08:13:26;99876.53;;;36.44;30.19
60101;BME280;45978;53.646;55.930;2022-08-11T08:14:47;99869.19;;;36.24;29.86
60101;BME280;45978;53.646;55.930;2022-08-11T08:16:10;99876.94;;;36.01;30.07
60101;BME280;45978;53.646;55.930;2022-08-11T08:17:30;99872.28;;;35.81;30.35
60101;BME280;45978;53.646;55.930;2022-08-11T08:18:51;99877.72;;;35.68;30.93
60101;BME280;45978;53.646;55.930;2022-08-11T08:19:57;99859.34;;;35.48;31.08
60101;BME280;45978;53.646;55.930;2022-08-11T08:21:00;99850.72;;;35.38;31.46
60101;BME280;45978;53.646;55.930;2022-08-11T08:22:15;99849.34;;;35.14;31.70
60101;BME280;45978;53.646;55.930;2022-08-11T08:23:24;99874.59;;;35.16;32.01
60101;BME280;45978;53.646;55.930;2022-08-11T08:24:35;99872.13;;;34.93;32.23
60101;BME280;45978;53.646;55.930;2022-08-11T08:25:39;99865.97;;;34.84;32.70
60101;BME280;45978;53.646;55.930;2022-08-11T08:26:43;99868.88;;;34.76;32.65
60101;BME280;45978;53.646;55.930;2022-08-11T08:28:25;99869.03;;;34.68;32.51
60101;BME280;45978;53.646;55.930;2022-08-11T08:29:32;99861.78;;;34.54;32.50
60101;BME280;45978;53.646;55.930;2022-08-11T08:30:58;99876.31;;;34.61;33.22
60101;BME280;45978;53.646;55.930;2022-08-11T08:32:01;99870.44;;;34.57;32.72
60101;BME280;45978;53.646;55.930;2022-08-11T08:33:03;99868.41;;;34.66;32.83
60101;BME280;45978;53.646;55.930;2022-08-11T08:34:05;99865.84;;;34.64;33.14
60101;BME280;45978;53.646;55.930;2022-08-11T08:35:09;99865.28;;;34.69;33.33
60101;BME280;45978;53.646;55.930;2022-08-11T08:36:11;99860.66;;;34.69;33.19
60101;BME280;45978;53.646;55.930;2022-08-11T08:37:28;99863.19;;;34.71;32.79
60101;BME280;45978;53.646;55.930;2022-08-11T08:38:29;99863.84;;;34.73;32.51
60101;BME280;45978;53.646;55.930;2022-08-11T08:39:31;99871.38;;;34.71;32.78
60101;BME280;45978;53.646;55.930;2022-08-11T08:40:42;99866.25;;;34.61;32.19
60101;BME280;45978;53.646;55.930;2022-08-11T08:41:44;99863.28;;;34.56;32.59
60101;BME280;45978;53.646;55.930;2022-08-11T08:42:54;99852.53;;;34.48;32.25
60101;BME280;45978;53.646;55.930;2022-08-11T08:44:03;99861.09;;;34.45;32.53
60101;BME280;45978;53.646;55.930;2022-08-11T08:45:09;99866.16;;;34.48;32.18
60101;BME280;45978;53.646;55.930;2022-08-11T08:46:13;99863.44;;;34.48;32.60
60101;BME280;45978;53.646;55.930;2022-08-11T08:47:17;99866.19;;;34.55;32.92
60101;BME280;45978;53.646;55.930;2022-08-11T08:48:21;99852.53;;;34.48;32.29
60101;BME280;45978;53.646;55.930;2022-08-11T08:49:31;99854.91;;;34.29;33.11
60101;BME280;45978;53.646;55.930;2022-08-11T08:50:39;99854.84;;;34.23;32.79
60101;BME280;45978;53.646;55.930;2022-08-11T08:52:04;99849.59;;;34.21;33.04
60101;BME280;45978;53.646;55.930;2022-08-11T08:53:08;99863.75;;;34.31;32.09
60101;BME280;45978;53.646;55.930;2022-08-11T08:54:16;99850.97;;;34.39;33.01
60101;BME280;45978;53.646;55.930;2022-08-11T08:55:20;99858.13;;;34.40;32.10
60101;BME280;45978;53.646;55.930;2022-08-11T08:56:27;99856.59;;;34.30;33.61
60101;BME280;45978;53.646;55.930;2022-08-11T08:57:34;99864.97;;;34.29;35.20
60101;BME280;45978;53.646;55.930;2022-08-11T08:58:38;99866.34;;;34.18;36.72
60101;BME280;45978;53.646;55.930;2022-08-11T08:59:46;99866.19;;;34.05;37.43
60101;BME280;45978;53.646;55.930;2022-08-11T09:00:52;99865.06;;;33.92;38.43
60101;BME280;45978;53.646;55.930;2022-08-11T09:02:00;99867.00;;;33.77;39.68
60101;BME280;45978;53.646;55.930;2022-08-11T09:03:05;99878.63;;;33.49;43.69
60101;BME280;45978;53.646;55.930;2022-08-11T09:04:08;99868.44;;;33.22;43.99
60101;BME280;45978;53.646;55.930;2022-08-11T09:05:12;99867.41;;;32.93;44.50
60101;BME280;45978;53.646;55.930;2022-08-11T09:06:17;99868.19;;;32.72;43.74
60101;BME280;45978;53.646;55.930;2022-08-11T09:07:22;99873.59;;;32.57;43.65
60101;BME280;45978;53.646;55.930;2022-08-11T09:08:31;99874.00;;;32.31;44.96
60101;BME280;45978;53.646;55.930;2022-08-11T09:09:35;99876.19;;;32.12;45.10
60101;BME280;45978;53.646;55.930;2022-08-11T09:10:37;99880.69;;;31.97;47.37
60101;BME280;45978;53.646;55.930;2022-08-11T09:11:41;99874.13;;;31.91;49.12
60101;BME280;45978;53.646;55.930;2022-08-11T09:12:51;99871.09;;;31.86;49.72
60101;BME280;45978;53.646;55.930;2022-08-11T09:13:55;99853.34;;;31.75;50.09
60101;BME280;45978;53.646;55.930;2022-08-11T09:15:04;99867.25;;;31.81;49.71
60101;BME280;45978;53.646;55.930;2022-08-11T09:16:15;99864.63;;;31.87;50.33
60101;BME280;45978;53.646;55.930;2022-08-11T09:17:18;99859.59;;;31.84;50.67
60101;BME280;45978;53.646;55.930;2022-08-11T09:18:19;99870.28;;;31.86;50.19
60101;BME280;45978;53.646;55.930;2022-08-11T09:19:22;99860.00;;;31.73;50.02
60101;BME280;45978;53.646;55.930;2022-08-11T09:20:30;99865.31;;;31.66;49.59
60101;BME280;45978;53.646;55.930;2022-08-11T09:21:39;99862.16;;;31.54;50.55